Time;durP1;ratioP1;P1;durP2;ratioP2;P2;SDS_P1;SDS_P2;PMS_P1;PMS_P2;Temp;Humidity;BMP_temperature;BMP_pressure;BME280_temperature;BME280_humidity;BME280_pressure;Samples;Min_cycle;Max_cycle;Signal;HPM_P1;HPM_P2
2021/06/25 00:00:19;;;;;;;2.92;0.90;;;;;;;;;;7063084;28;20445;-80
2021/06/25 00:03:40;;;;;;;2.30;0.80;;;;;;;;;;7062833;28;20488;-80
2021/06/25 00:07:00;;;;;;;1.75;0.98;;;;;;;;;;7062816;28;20589;-79
2021/06/25 00:10:21;;;;;;;1.60;0.70;;;;;;;;;;7063684;28;20043;-79
2021/06/25 00:13:41;;;;;;;3.65;0.95;;;;;;;;;;7059530;28;20054;-79
2021/06/25 00:17:02;;;;;;;1.95;0.90;;;;;;;;;;7080713;27;20490;-79
2021/06/25 00:20:23;;;;;;;1.85;0.93;;;;;;;;;;7063673;28;20079;-79
2021/06/25 00:23:43;;;;;;;1.00;0.70;;;;;;;;;;7057169;28;20050;-79
2021/06/25 00:27:04;;;;;;;2.42;0.82;;;;;;;;;;7081213;28;20835;-79
2021/06/25 00:30:25;;;;;;;2.20;0.80;;;;;;;;;;7081043;28;20063;-79
2021/06/25 00:33:45;;;;;;;0.63;0.63;;;;;;;;;;7080031;28;20050;-79
2021/06/25 00:37:07;;;;;;;0.95;0.70;;;;;;;;;;7062795;28;20109;-78
2021/06/25 00:40:27;;;;;;;0.60;0.57;;;;;;;;;;7081477;28;20043;-78
2021/06/25 00:43:47;;;;;;;0.82;0.70;;;;;;;;;;7080098;28;20127;-78
2021/06/25 00:47:09;;;;;;;1.40;0.60;;;;;;;;;;7062895;28;20043;-78
2021/06/25 00:50:32;;;;;;;1.38;0.60;;;;;;;;;;7061934;28;20463;-79
2021/06/25 00:53:52;;;;;;;0.68;0.68;;;;;;;;;;7080573;28;20528;-78
2021/06/25 00:57:14;;;;;;;0.95;0.75;;;;;;;;;;7046968;28;20093;-78
2021/06/25 01:00:34;;;;;;;2.25;0.80;;;;;;;;;;7066635;28;20051;-78
2021/06/25 01:03:54;;;;;;;0.60;0.60;;;;;;;;;;7079894;28;20054;-79
2021/06/25 01:07:15;;;;;;;1.00;0.80;;;;;;;;;;7081008;28;20109;-78
2021/06/25 01:10:36;;;;;;;0.73;0.65;;;;;;;;;;7080487;28;20099;-79
2021/06/25 01:13:58;;;;;;;1.75;0.80;;;;;;;;;;7078902;28;20047;-79
2021/06/25 01:17:29;;;;;;;2.17;0.68;;;;;;;;;;7061528;28;20126;-79
2021/06/25 01:20:50;;;;;;;2.22;0.73;;;;;;;;;;7080556;28;20118;-79
2021/06/25 01:24:10;;;;;;;1.80;0.60;;;;;;;;;;7079698;28;20046;-78
2021/06/25 01:27:31;;;;;;;1.35;0.65;;;;;;;;;;6973413;22;20092;-79
2021/06/25 01:30:52;;;;;;;0.70;0.70;;;;;;;;;;6939674;28;20124;-78
2021/06/25 01:34:12;;;;;;;0.60;0.55;;;;;;;;;;6940839;28;20054;-78
2021/06/25 01:37:33;;;;;;;0.70;0.70;;;;;;;;;;6939221;28;20436;-79
2021/06/25 01:40:54;;;;;;;0.60;0.60;;;;;;;;;;6939390;28;20126;-79
2021/06/25 01:44:15;;;;;;;1.10;0.65;;;;;;;;;;6939692;28;20046;-81
2021/06/25 01:47:36;;;;;;;7.30;0.75;;;;;;;;;;6937338;28;20104;-81
2021/06/25 01:50:57;;;;;;;0.50;0.50;;;;;;;;;;6940991;28;20065;-82
2021/06/25 01:54:18;;;;;;;1.42;0.60;;;;;;;;;;6939268;28;20203;-82
2021/06/25 01:57:39;;;;;;;0.93;0.60;;;;;;;;;;6939035;28;20073;-81
2021/06/25 02:01:16;;;;;;;1.00;0.70;;;;;;;;;;6939884;28;20037;-81
2021/06/25 02:04:36;;;;;;;2.17;0.63;;;;;;;;;;6939338;28;20045;-82
2021/06/25 02:07:57;;;;;;;0.70;0.70;;;;;;;;;;6939607;28;20080;-83
2021/06/25 02:11:18;;;;;;;4.50;0.80;;;;;;;;;;6940406;28;20046;-82
2021/06/25 02:14:38;;;;;;;1.38;0.60;;;;;;;;;;6939878;28;20541;-82
2021/06/25 02:17:59;;;;;;;4.18;0.60;;;;;;;;;;6940371;28;20138;-82
2021/06/25 02:21:19;;;;;;;1.77;0.80;;;;;;;;;;6953951;28;20483;-82
2021/06/25 02:24:40;;;;;;;0.90;0.47;;;;;;;;;;6939922;28;20495;-82
2021/06/25 02:28:01;;;;;;;1.80;0.60;;;;;;;;;;6938710;28;20057;-82
2021/06/25 02:31:21;;;;;;;0.50;0.50;;;;;;;;;;6929788;28;20045;-81
2021/06/25 02:34:42;;;;;;;0.60;0.60;;;;;;;;;;6939129;28;20549;-82
2021/06/25 02:38:03;;;;;;;0.55;0.50;;;;;;;;;;6940118;28;20044;-82
2021/06/25 02:41:23;;;;;;;1.13;0.65;;;;;;;;;;6943242;28;20053;-82
2021/06/25 02:44:44;;;;;;;0.85;0.65;;;;;;;;;;6944176;28;20095;-82
2021/06/25 02:48:05;;;;;;;0.85;0.60;;;;;;;;;;6942886;28;20103;-82
2021/06/25 02:51:26;;;;;;;1.02;0.73;;;;;;;;;;6938405;28;20068;-82
2021/06/25 02:54:46;;;;;;;0.50;0.50;;;;;;;;;;6937275;28;20111;-81
2021/06/25 02:58:07;;;;;;;4.20;0.63;;;;;;;;;;6949884;28;20497;-81
2021/06/25 03:01:27;;;;;;;0.40;0.40;;;;;;;;;;6950288;28;20073;-81
2021/06/25 03:04:47;;;;;;;0.52;0.52;;;;;;;;;;6958972;28;20041;-81
2021/06/25 03:08:08;;;;;;;0.90;0.60;;;;;;;;;;6942801;28;20107;-81
2021/06/25 03:11:28;;;;;;;0.77;0.60;;;;;;;;;;6940150;28;20072;-81
2021/06/25 03:14:49;;;;;;;0.93;0.50;;;;;;;;;;6943686;28;20091;-81
2021/06/25 03:18:10;;;;;;;2.55;0.60;;;;;;;;;;6943694;28;20136;-81
2021/06/25 03:21:30;;;;;;;1.02;0.55;;;;;;;;;;6941597;28;20052;-82
2021/06/25 03:24:51;;;;;;;0.50;0.50;;;;;;;;;;6942247;28;20061;-82
2021/06/25 03:28:11;;;;;;;0.90;0.80;;;;;;;;;;6943585;28;20089;-82
2021/06/25 03:31:32;;;;;;;0.65;0.60;;;;;;;;;;6941151;28;20380;-82
2021/06/25 03:34:52;;;;;;;0.93;0.50;;;;;;;;;;6943603;28;20063;-81
2021/06/25 03:38:13;;;;;;;1.00;0.50;;;;;;;;;;6943246;28;20399;-81
2021/06/25 03:41:36;;;;;;;0.50;0.50;;;;;;;;;;6957599;28;20483;-81
2021/06/25 03:44:56;;;;;;;0.95;0.57;;;;;;;;;;6941617;28;20059;-81
2021/06/25 03:48:17;;;;;;;0.88;0.50;;;;;;;;;;6941944;28;20041;-80
2021/06/25 03:51:37;;;;;;;1.35;0.70;;;;;;;;;;6935462;28;20369;-81
2021/06/25 03:54:58;;;;;;;0.50;0.50;;;;;;;;;;6931894;28;20132;-81
2021/06/25 03:58:18;;;;;;;0.73;0.70;;;;;;;;;;6942970;28;20057;-81
2021/06/25 04:01:39;;;;;;;1.17;0.60;;;;;;;;;;6939955;28;20626;-81
2021/06/25 04:04:59;;;;;;;0.95;0.60;;;;;;;;;;6955516;28;20037;-82
2021/06/25 04:08:19;;;;;;;1.10;0.63;;;;;;;;;;6942725;28;20081;-82
2021/06/25 04:11:40;;;;;;;1.60;0.77;;;;;;;;;;6942141;28;20447;-82
2021/06/25 04:15:00;;;;;;;0.55;0.47;;;;;;;;;;6942467;28;20080;-82
2021/06/25 04:18:21;;;;;;;0.77;0.57;;;;;;;;;;6942652;28;20037;-82
2021/06/25 04:21:42;;;;;;;1.15;0.60;;;;;;;;;;6933355;28;20052;-82
2021/06/25 04:25:03;;;;;;;1.17;0.70;;;;;;;;;;6941110;28;20076;-82
2021/06/25 04:28:23;;;;;;;1.85;0.60;;;;;;;;;;6942147;28;20507;-82
2021/06/25 04:31:51;;;;;;;2.47;0.60;;;;;;;;;;6923101;28;20041;-81
2021/06/25 04:35:11;;;;;;;0.77;0.77;;;;;;;;;;6941863;28;20099;-81
2021/06/25 04:38:31;;;;;;;1.13;1.08;;;;;;;;;;6924235;28;20069;-82
2021/06/25 04:41:52;;;;;;;1.73;1.30;;;;;;;;;;6955773;28;20080;-81
2021/06/25 04:45:13;;;;;;;2.35;2.15;;;;;;;;;;6940708;28;20115;-81
2021/06/25 04:48:34;;;;;;;3.40;3.20;;;;;;;;;;6940307;28;20060;-82
2021/06/25 04:51:55;;;;;;;2.90;2.70;;;;;;;;;;6940044;28;20399;-79
2021/06/25 04:55:15;;;;;;;1.42;1.33;;;;;;;;;;6951184;28;20534;-80
2021/06/25 04:58:36;;;;;;;1.38;0.70;;;;;;;;;;6937052;28;20125;-82
2021/06/25 05:01:56;;;;;;;1.13;0.60;;;;;;;;;;6937868;28;20088;-82
2021/06/25 05:05:17;;;;;;;1.90;0.57;;;;;;;;;;6956500;28;20045;-81
2021/06/25 05:08:37;;;;;;;0.40;0.40;;;;;;;;;;6940179;28;20050;-81
2021/06/25 05:11:58;;;;;;;0.63;0.60;;;;;;;;;;6938967;28;20111;-81
2021/06/25 05:15:20;;;;;;;0.47;0.40;;;;;;;;;;6941220;28;20076;-81
2021/06/25 05:18:40;;;;;;;0.65;0.50;;;;;;;;;;6941309;28;20042;-81
2021/06/25 05:22:01;;;;;;;1.27;0.60;;;;;;;;;;6940808;28;20041;-82
2021/06/25 05:25:21;;;;;;;0.47;0.47;;;;;;;;;;6939711;28;20055;-82
2021/06/25 05:28:42;;;;;;;2.03;0.85;;;;;;;;;;6945688;28;20067;-82
2021/06/25 05:32:02;;;;;;;0.68;0.60;;;;;;;;;;6949734;28;20048;-82
2021/06/25 05:35:24;;;;;;;0.43;0.40;;;;;;;;;;6941359;28;20046;-82
2021/06/25 05:38:45;;;;;;;1.45;0.73;;;;;;;;;;6955787;28;20069;-82
2021/06/25 05:42:05;;;;;;;0.77;0.47;;;;;;;;;;6948029;28;20119;-82
2021/06/25 05:45:26;;;;;;;0.50;0.50;;;;;;;;;;6950938;28;20044;-83
2021/06/25 05:48:46;;;;;;;1.52;0.70;;;;;;;;;;6952173;28;20741;-82
2021/06/25 05:52:07;;;;;;;0.88;0.50;;;;;;;;;;6943195;28;20053;-82
2021/06/25 05:55:27;;;;;;;1.60;0.63;;;;;;;;;;6967694;28;20094;-82
2021/06/25 05:58:48;;;;;;;0.43;0.43;;;;;;;;;;6983055;28;20053;-81
2021/06/25 06:02:08;;;;;;;0.63;0.50;;;;;;;;;;6933229;28;20049;-80
2021/06/25 06:05:29;;;;;;;0.63;0.60;;;;;;;;;;6950430;28;20382;-81
2021/06/25 06:08:49;;;;;;;3.30;0.40;;;;;;;;;;6971741;28;20476;-81
2021/06/25 06:12:10;;;;;;;0.93;0.80;;;;;;;;;;6958195;28;20060;-82
2021/06/25 06:15:31;;;;;;;0.50;0.50;;;;;;;;;;6952074;28;20502;-81
2021/06/25 06:18:52;;;;;;;3.17;0.70;;;;;;;;;;6943979;28;20041;-80
2021/06/25 06:33:16;;;;;;;17.38;16.17;;;;;;;;;;6946524;28;20580;-79
2021/06/25 06:36:41;;;;;;;16.45;15.45;;;;;;;;;;6936860;28;20126;-78
2021/06/25 06:40:02;;;;;;;17.30;16.00;;;;;;;;;;6943402;28;20040;-78
2021/06/25 06:43:23;;;;;;;16.80;15.80;;;;;;;;;;6952151;28;20045;-78
2021/06/25 06:46:43;;;;;;;17.00;15.70;;;;;;;;;;6952368;28;20561;-79
2021/06/25 06:50:04;;;;;;;17.35;16.35;;;;;;;;;;6944028;28;20097;-78
2021/06/25 06:53:25;;;;;;;25.63;15.80;;;;;;;;;;6937744;28;20049;-81
2021/06/25 06:56:45;;;;;;;0.70;0.70;;;;;;;;;;6931055;28;20128;-80
2021/06/25 07:00:07;;;;;;;11.90;1.35;;;;;;;;;;6929752;28;20131;-77
2021/06/25 07:03:28;;;;;;;2.33;1.08;;;;;;;;;;6943955;28;20052;-80
2021/06/25 07:06:48;;;;;;;4.15;1.23;;;;;;;;;;6945300;28;20049;-80
2021/06/25 07:10:09;;;;;;;5.03;1.10;;;;;;;;;;6959190;28;20041;-78
2021/06/25 07:13:30;;;;;;;4.57;1.20;;;;;;;;;;6950539;28;20136;-80
2021/06/25 07:16:50;;;;;;;1.58;1.05;;;;;;;;;;6941460;28;20049;-80
2021/06/25 07:20:11;;;;;;;2.03;0.95;;;;;;;;;;6954853;28;20481;-79
2021/06/25 07:23:31;;;;;;;1.50;1.27;;;;;;;;;;6944146;28;20483;-80
2021/06/25 07:26:52;;;;;;;2.17;1.20;;;;;;;;;;6952122;28;20073;-78
2021/06/25 07:30:13;;;;;;;3.63;1.15;;;;;;;;;;6941392;28;20583;-79
2021/06/25 07:33:33;;;;;;;3.50;1.08;;;;;;;;;;6950596;28;20556;-80
2021/06/25 07:36:54;;;;;;;0.90;0.80;;;;;;;;;;6944933;28;20073;-80
2021/06/25 07:40:14;;;;;;;4.32;1.23;;;;;;;;;;6944756;28;20045;-79
2021/06/25 07:43:35;;;;;;;4.55;1.23;;;;;;;;;;6966154;28;20075;-79
2021/06/25 07:46:56;;;;;;;2.72;1.20;;;;;;;;;;6967485;28;20053;-79
2021/06/25 07:50:18;;;;;;;1.88;0.82;;;;;;;;;;6965424;28;20513;-78
2021/06/25 07:53:38;;;;;;;1.17;1.00;;;;;;;;;;6952197;28;20056;-79
2021/06/25 07:56:58;;;;;;;1.23;0.82;;;;;;;;;;6951923;28;20124;-78
2021/06/25 08:00:19;;;;;;;1.50;1.02;;;;;;;;;;6955081;28;20467;-78
2021/06/25 08:03:39;;;;;;;1.00;0.90;;;;;;;;;;6958816;28;20132;-78
2021/06/25 08:07:00;;;;;;;0.98;0.85;;;;;;;;;;6950165;28;20045;-79
2021/06/25 08:10:20;;;;;;;1.45;1.10;;;;;;;;;;6945460;28;20051;-78
2021/06/25 08:13:41;;;;;;;1.85;0.90;;;;;;;;;;6949717;28;20049;-78
2021/06/25 08:17:02;;;;;;;3.67;0.80;;;;;;;;;;6933493;28;20044;-79
2021/06/25 08:20:24;;;;;;;3.17;1.08;;;;;;;;;;6946724;28;20068;-79
2021/06/25 08:23:44;;;;;;;1.48;0.82;;;;;;;;;;6941022;28;20510;-80
2021/06/25 08:27:06;;;;;;;1.25;0.80;;;;;;;;;;6959556;28;20037;-81
2021/06/25 08:30:30;;;;;;;1.92;0.90;;;;;;;;;;6966512;28;20045;-83
2021/06/25 08:33:51;;;;;;;5.03;0.80;;;;;;;;;;6961850;28;20049;-81
2021/06/25 08:37:11;;;;;;;2.55;0.95;;;;;;;;;;6953054;28;20445;-80
2021/06/25 08:40:32;;;;;;;4.70;0.93;;;;;;;;;;6952998;28;20052;-80
2021/06/25 08:43:54;;;;;;;2.92;0.90;;;;;;;;;;6942320;28;20510;-82
2021/06/25 08:47:14;;;;;;;4.40;1.10;;;;;;;;;;6951528;28;20080;-80
2021/06/25 08:50:40;;;;;;;2.22;0.90;;;;;;;;;;6950764;28;20041;-78
2021/06/25 08:54:00;;;;;;;0.70;0.70;;;;;;;;;;6950963;28;20065;-80
2021/06/25 08:57:22;;;;;;;4.28;0.90;;;;;;;;;;6961672;28;20463;-79
2021/06/25 09:00:43;;;;;;;2.70;1.05;;;;;;;;;;6946303;28;20080;-81
2021/06/25 09:04:05;;;;;;;3.95;0.75;;;;;;;;;;6951851;28;20045;-79
2021/06/25 09:07:42;;;;;;;1.88;0.70;;;;;;;;;;6952336;28;20124;-80
2021/06/25 09:11:25;;;;;;;1.85;0.88;;;;;;;;;;6959199;28;20536;-80
2021/06/25 09:15:08;;;;;;;2.05;0.90;;;;;;;;;;6952340;28;20053;-81
2021/06/25 09:18:28;;;;;;;1.67;0.80;;;;;;;;;;6936530;28;20045;-80
2021/06/25 09:22:01;;;;;;;1.95;0.80;;;;;;;;;;6957661;28;20132;-79
2021/06/25 09:25:21;;;;;;;2.85;0.90;;;;;;;;;;6961564;28;20049;-78
2021/06/25 09:28:44;;;;;;;0.80;0.80;;;;;;;;;;6954795;28;20084;-79
2021/06/25 09:32:13;;;;;;;1.20;0.80;;;;;;;;;;6951195;28;20172;-79
2021/06/25 09:35:33;;;;;;;1.00;0.90;;;;;;;;;;6974993;28;20056;-80
2021/06/25 09:39:10;;;;;;;1.27;0.85;;;;;;;;;;6948069;28;20049;-81
2021/06/25 09:42:30;;;;;;;0.70;0.70;;;;;;;;;;6959202;28;20040;-80
2021/06/25 09:45:51;;;;;;;1.08;0.80;;;;;;;;;;6974681;28;20041;-80
2021/06/25 09:49:13;;;;;;;0.82;0.80;;;;;;;;;;6938437;28;20117;-82
2021/06/25 09:53:04;;;;;;;1.63;0.80;;;;;;;;;;6959697;28;20060;-81
2021/06/25 09:56:25;;;;;;;1.30;1.08;;;;;;;;;;6926702;28;20050;-81
2021/06/25 10:03:13;;;;;;;2.40;0.90;;;;;;;;;;6957467;28;20042;-81
2021/06/25 10:06:34;;;;;;;2.00;0.90;;;;;;;;;;6956834;28;20057;-78
2021/06/25 10:09:57;;;;;;;1.42;1.05;;;;;;;;;;6955887;28;20038;-78
2021/06/25 10:13:18;;;;;;;1.98;0.82;;;;;;;;;;6962314;28;20049;-79
2021/06/25 10:16:38;;;;;;;1.13;0.90;;;;;;;;;;6945526;28;20045;-78
2021/06/25 10:20:06;;;;;;;2.67;0.90;;;;;;;;;;6939136;28;20064;-80
2021/06/25 10:23:29;;;;;;;5.88;0.88;;;;;;;;;;6962725;28;20637;-80
2021/06/25 10:26:50;;;;;;;1.05;0.73;;;;;;;;;;6950164;28;20045;-81
2021/06/25 10:30:10;;;;;;;1.35;0.70;;;;;;;;;;6956640;28;20081;-83
2021/06/25 10:33:31;;;;;;;2.40;0.93;;;;;;;;;;6937292;28;20050;-80
2021/06/25 10:36:52;;;;;;;1.38;0.82;;;;;;;;;;6950184;28;20522;-80
2021/06/25 10:40:24;;;;;;;2.08;1.15;;;;;;;;;;6956753;28;20049;-80
2021/06/25 10:43:50;;;;;;;0.88;0.70;;;;;;;;;;6946519;28;20072;-80
2021/06/25 10:47:30;;;;;;;1.17;0.70;;;;;;;;;;6946777;28;20415;-80
2021/06/25 10:50:50;;;;;;;11.60;1.02;;;;;;;;;;6931739;28;20075;-81
2021/06/25 10:54:14;;;;;;;1.73;0.95;;;;;;;;;;6966828;28;20060;-80
2021/06/25 10:57:36;;;;;;;1.13;0.98;;;;;;;;;;6961204;28;20034;-80
2021/06/25 11:00:59;;;;;;;3.50;1.00;;;;;;;;;;6957826;28;20052;-80
2021/06/25 11:04:44;;;;;;;8.63;0.85;;;;;;;;;;6967988;28;20128;-80
2021/06/25 11:08:14;;;;;;;2.28;0.85;;;;;;;;;;6959248;28;20053;-80
2021/06/25 11:11:35;;;;;;;1.30;0.80;;;;;;;;;;6959765;28;20049;-79
2021/06/25 11:15:16;;;;;;;2.10;0.85;;;;;;;;;;6942651;28;20053;-80
2021/06/25 11:18:43;;;;;;;1.80;1.00;;;;;;;;;;6943234;28;20068;-80
2021/06/25 11:22:37;;;;;;;4.35;0.93;;;;;;;;;;6944474;28;20040;-80
2021/06/25 11:26:02;;;;;;;1.23;0.80;;;;;;;;;;6946847;28;20044;-80
2021/06/25 11:29:42;;;;;;;0.93;0.77;;;;;;;;;;6933004;28;20049;-81
2021/06/25 11:33:28;;;;;;;1.17;0.93;;;;;;;;;;6946038;28;20045;-81
2021/06/25 11:36:51;;;;;;;0.85;0.85;;;;;;;;;;6939957;28;20391;-81
2021/06/25 11:40:12;;;;;;;1.40;0.90;;;;;;;;;;6960298;28;20060;-81
2021/06/25 11:43:32;;;;;;;1.60;0.88;;;;;;;;;;6951890;28;20041;-79
2021/06/25 11:46:59;;;;;;;0.90;0.75;;;;;;;;;;6946685;28;20125;-82
2021/06/25 11:50:20;;;;;;;2.85;1.00;;;;;;;;;;6947026;28;20476;-82
2021/06/25 11:53:41;;;;;;;1.40;0.95;;;;;;;;;;6946378;28;20136;-81
2021/06/25 11:57:03;;;;;;;0.80;0.80;;;;;;;;;;6932056;28;20041;-81
2021/06/25 12:00:24;;;;;;;1.10;1.00;;;;;;;;;;6939414;28;20044;-81
2021/06/25 12:03:44;;;;;;;2.03;0.80;;;;;;;;;;6942401;28;20081;-81
2021/06/25 12:07:11;;;;;;;1.10;1.00;;;;;;;;;;6932558;28;20038;-82
2021/06/25 12:10:32;;;;;;;1.52;0.90;;;;;;;;;;6937076;28;20049;-81
2021/06/25 12:14:04;;;;;;;3.10;0.88;;;;;;;;;;6944592;28;20049;-80
2021/06/25 12:17:39;;;;;;;1.25;0.80;;;;;;;;;;6929536;28;20087;-82
2021/06/25 12:21:13;;;;;;;1.27;0.88;;;;;;;;;;6946437;28;20403;-83
2021/06/25 12:25:03;;;;;;;2.17;0.90;;;;;;;;;;6946243;28;20419;-81
2021/06/25 12:28:24;;;;;;;1.65;0.80;;;;;;;;;;6940671;28;20076;-81
2021/06/25 12:31:44;;;;;;;1.55;0.90;;;;;;;;;;6938497;28;20050;-81
2021/06/25 12:35:06;;;;;;;1.17;0.93;;;;;;;;;;6940308;28;20049;-81
2021/06/25 12:38:27;;;;;;;1.13;0.90;;;;;;;;;;6944628;28;20052;-82
2021/06/25 12:41:48;;;;;;;3.53;0.90;;;;;;;;;;6959570;28;20136;-81
2021/06/25 12:45:11;;;;;;;1.60;1.00;;;;;;;;;;6959430;28;20045;-81
2021/06/25 12:48:33;;;;;;;2.60;1.02;;;;;;;;;;6952339;28;20057;-82
2021/06/25 12:51:54;;;;;;;4.13;1.00;;;;;;;;;;6953334;28;20049;-81
2021/06/25 12:55:14;;;;;;;4.13;0.90;;;;;;;;;;6957805;28;20060;-81
2021/06/25 12:58:37;;;;;;;0.68;0.68;;;;;;;;;;6958910;28;20056;-81
2021/06/25 13:02:01;;;;;;;1.45;0.82;;;;;;;;;;6948237;28;20045;-81
2021/06/25 13:05:34;;;;;;;1.95;0.90;;;;;;;;;;6946835;28;20054;-81
2021/06/25 13:08:56;;;;;;;1.77;0.80;;;;;;;;;;6939894;28;20050;-81
2021/06/25 13:12:23;;;;;;;1.15;0.77;;;;;;;;;;6940356;28;20423;-80
2021/06/25 13:15:49;;;;;;;1.23;0.70;;;;;;;;;;6940075;28;20099;-81
2021/06/25 13:19:13;;;;;;;1.08;0.90;;;;;;;;;;6929366;28;20046;-81
2021/06/25 13:22:59;;;;;;;3.28;1.00;;;;;;;;;;6939296;28;20136;-81
2021/06/25 13:26:28;;;;;;;0.90;0.82;;;;;;;;;;6956863;22;20064;-80
2021/06/25 13:29:50;;;;;;;2.63;1.00;;;;;;;;;;6967215;28;20041;-80
2021/06/25 13:33:13;;;;;;;0.80;0.80;;;;;;;;;;6995323;28;20072;-80
2021/06/25 13:36:34;;;;;;;2.30;0.85;;;;;;;;;;6967616;28;20418;-80
2021/06/25 13:39:55;;;;;;;0.70;0.70;;;;;;;;;;6967637;28;20530;-81
2021/06/25 13:43:18;;;;;;;1.02;0.82;;;;;;;;;;6966254;28;20091;-80
2021/06/25 13:46:40;;;;;;;3.67;0.98;;;;;;;;;;6955517;28;20403;-79
2021/06/25 13:50:04;;;;;;;1.08;0.80;;;;;;;;;;6963508;28;20053;-79
2021/06/25 13:53:38;;;;;;;1.98;1.02;;;;;;;;;;6967540;28;20155;-79
2021/06/25 13:57:00;;;;;;;3.22;1.05;;;;;;;;;;6967695;28;20056;-79
2021/06/25 14:00:43;;;;;;;11.27;1.33;;;;;;;;;;6967349;28;20048;-79
2021/06/25 14:04:08;;;;;;;1.92;0.90;;;;;;;;;;6966003;28;20045;-79
2021/06/25 14:07:29;;;;;;;4.85;1.30;;;;;;;;;;6951765;28;20076;-79
2021/06/25 14:10:56;;;;;;;2.42;1.15;;;;;;;;;;6966332;28;20048;-79
2021/06/25 14:14:17;;;;;;;1.17;0.90;;;;;;;;;;6967719;28;20049;-80
2021/06/25 14:17:37;;;;;;;1.38;0.93;;;;;;;;;;6967414;28;20832;-80
2021/06/25 14:20:58;;;;;;;0.85;0.82;;;;;;;;;;6966542;28;20045;-82
2021/06/25 14:24:25;;;;;;;1.45;0.80;;;;;;;;;;6967813;28;20139;-82
2021/06/25 14:27:45;;;;;;;3.10;0.82;;;;;;;;;;6966639;28;20115;-81
2021/06/25 14:31:06;;;;;;;3.10;0.90;;;;;;;;;;6955749;28;20503;-81
2021/06/25 14:34:26;;;;;;;1.35;0.90;;;;;;;;;;6953017;28;20080;-82
2021/06/25 14:37:47;;;;;;;2.17;1.00;;;;;;;;;;6971295;28;20080;-82
2021/06/25 14:41:07;;;;;;;2.22;1.02;;;;;;;;;;6948574;28;20040;-82
2021/06/25 14:44:28;;;;;;;0.93;0.88;;;;;;;;;;6968407;28;20057;-82
2021/06/25 14:47:48;;;;;;;4.25;0.80;;;;;;;;;;6958816;28;20041;-82
2021/06/25 14:51:08;;;;;;;2.22;0.93;;;;;;;;;;6962000;28;20104;-82
2021/06/25 14:54:29;;;;;;;1.30;1.08;;;;;;;;;;6964535;28;20418;-82
2021/06/25 14:57:49;;;;;;;3.03;1.05;;;;;;;;;;6971039;28;20584;-82
2021/06/25 15:01:10;;;;;;;2.55;1.25;;;;;;;;;;6964534;28;20046;-82
2021/06/25 15:04:30;;;;;;;1.83;0.90;;;;;;;;;;6959119;28;20072;-82
2021/06/25 15:07:51;;;;;;;2.30;0.90;;;;;;;;;;6958182;28;20049;-81
2021/06/25 15:11:11;;;;;;;1.42;0.93;;;;;;;;;;6969021;28;20110;-81
2021/06/25 15:14:32;;;;;;;0.80;0.80;;;;;;;;;;6949744;28;20053;-80
2021/06/25 15:17:53;;;;;;;3.13;1.00;;;;;;;;;;6964983;28;20056;-80
2021/06/25 15:21:13;;;;;;;1.17;0.90;;;;;;;;;;6969726;28;20075;-81
2021/06/25 15:24:34;;;;;;;2.47;1.00;;;;;;;;;;6970362;28;20045;-81
2021/06/25 15:27:54;;;;;;;1.00;0.90;;;;;;;;;;6970116;28;20061;-81
2021/06/25 15:31:14;;;;;;;1.33;1.08;;;;;;;;;;6970439;28;20063;-80
2021/06/25 15:34:35;;;;;;;1.15;1.00;;;;;;;;;;6938849;28;20080;-81
2021/06/25 15:37:55;;;;;;;1.67;0.85;;;;;;;;;;6948982;28;20055;-81
2021/06/25 15:41:16;;;;;;;1.35;1.00;;;;;;;;;;6941664;28;20045;-81
2021/06/25 15:44:36;;;;;;;2.47;1.20;;;;;;;;;;6942510;28;20526;-81
2021/06/25 15:47:59;;;;;;;2.63;1.17;;;;;;;;;;6939177;28;20128;-81
2021/06/25 15:51:20;;;;;;;3.70;0.98;;;;;;;;;;6936776;28;20041;-81
2021/06/25 15:54:40;;;;;;;0.88;0.75;;;;;;;;;;6924127;28;20063;-81
2021/06/25 15:58:01;;;;;;;1.65;0.80;;;;;;;;;;6940128;28;20487;-81
2021/06/25 16:01:21;;;;;;;1.02;0.90;;;;;;;;;;6938118;28;20046;-81
2021/06/25 16:04:42;;;;;;;1.10;0.85;;;;;;;;;;6932008;28;20037;-81
2021/06/25 16:08:04;;;;;;;1.17;0.90;;;;;;;;;;6936067;28;20046;-80
2021/06/25 16:11:26;;;;;;;1.80;0.85;;;;;;;;;;6929559;28;20072;-81
2021/06/25 16:14:47;;;;;;;1.20;0.90;;;;;;;;;;6910175;28;20053;-82
2021/06/25 16:18:07;;;;;;;1.30;0.93;;;;;;;;;;6937800;28;20145;-81
2021/06/25 16:21:28;;;;;;;1.00;0.80;;;;;;;;;;6939241;28;20488;-80
2021/06/25 16:24:49;;;;;;;1.25;0.80;;;;;;;;;;6937057;28;20458;-81
2021/06/25 16:28:10;;;;;;;0.80;0.70;;;;;;;;;;6940159;28;20042;-81
2021/06/25 16:31:30;;;;;;;1.23;0.77;;;;;;;;;;6936921;28;20046;-80
2021/06/25 16:34:51;;;;;;;1.38;0.90;;;;;;;;;;6939471;28;20068;-81
2021/06/25 16:38:11;;;;;;;1.38;1.00;;;;;;;;;;6936893;28;20136;-83
2021/06/25 16:41:32;;;;;;;5.97;0.80;;;;;;;;;;6938681;28;20041;-85
2021/06/25 16:44:52;;;;;;;1.50;0.90;;;;;;;;;;6939318;28;20056;-84
2021/06/25 16:48:13;;;;;;;1.00;0.65;;;;;;;;;;6939140;28;20084;-82
2021/06/25 16:51:33;;;;;;;1.55;0.80;;;;;;;;;;6937770;28;20481;-81
2021/06/25 16:54:54;;;;;;;2.60;0.85;;;;;;;;;;6937994;28;20581;-82
2021/06/25 16:58:15;;;;;;;8.32;1.10;;;;;;;;;;6937962;28;20479;-81
2021/06/25 17:01:35;;;;;;;0.95;0.75;;;;;;;;;;6938030;28;20056;-82
2021/06/25 17:04:56;;;;;;;1.13;1.00;;;;;;;;;;6940503;28;20044;-81
2021/06/25 17:08:16;;;;;;;2.30;0.90;;;;;;;;;;6940893;28;20053;-82
2021/06/25 17:11:37;;;;;;;1.50;1.02;;;;;;;;;;6940556;28;20042;-82
2021/06/25 17:14:57;;;;;;;3.15;0.73;;;;;;;;;;6940816;28;20108;-81
2021/06/25 17:18:18;;;;;;;1.80;0.90;;;;;;;;;;6941099;28;20115;-81
2021/06/25 17:21:38;;;;;;;2.72;0.80;;;;;;;;;;6940671;28;20099;-82
2021/06/25 17:24:59;;;;;;;0.82;0.70;;;;;;;;;;6939723;28;20483;-81
2021/06/25 17:28:21;;;;;;;4.10;1.05;;;;;;;;;;6940892;28;20049;-80
2021/06/25 17:31:41;;;;;;;5.07;1.00;;;;;;;;;;6939593;28;20045;-80
2021/06/25 17:35:02;;;;;;;0.82;0.77;;;;;;;;;;6930953;28;20050;-80
2021/06/25 17:38:22;;;;;;;0.95;0.80;;;;;;;;;;6939957;28;20179;-80
2021/06/25 17:41:43;;;;;;;0.98;0.68;;;;;;;;;;6938516;28;21059;-81
2021/06/25 17:45:05;;;;;;;1.98;0.90;;;;;;;;;;6943232;28;20132;-80
2021/06/25 17:48:25;;;;;;;1.63;0.82;;;;;;;;;;6939591;28;20057;-81
2021/06/25 17:51:45;;;;;;;1.75;0.82;;;;;;;;;;6937353;28;20152;-81
2021/06/25 17:55:07;;;;;;;3.20;0.98;;;;;;;;;;6936830;28;20515;-81
2021/06/25 17:58:28;;;;;;;1.17;0.90;;;;;;;;;;6932787;28;20449;-81
2021/06/25 18:01:48;;;;;;;2.20;0.80;;;;;;;;;;6938782;28;20535;-81
2021/06/25 18:05:09;;;;;;;1.67;0.77;;;;;;;;;;6938504;28;20574;-81
2021/06/25 18:08:30;;;;;;;1.90;0.80;;;;;;;;;;6944820;28;20341;-80
2021/06/25 18:11:51;;;;;;;1.05;0.75;;;;;;;;;;6962050;28;20041;-81
2021/06/25 18:15:13;;;;;;;0.70;0.70;;;;;;;;;;6955331;28;20541;-81
2021/06/25 18:18:33;;;;;;;1.45;0.70;;;;;;;;;;6946755;28;20064;-81
2021/06/25 18:21:54;;;;;;;2.35;0.68;;;;;;;;;;6951973;28;20124;-81
2021/06/25 18:25:14;;;;;;;1.20;0.80;;;;;;;;;;6971449;28;20131;-81
2021/06/25 18:28:34;;;;;;;3.63;1.00;;;;;;;;;;6971769;28;20483;-81
2021/06/25 18:31:56;;;;;;;1.73;0.70;;;;;;;;;;6965844;28;20403;-81
2021/06/25 18:35:16;;;;;;;2.05;0.70;;;;;;;;;;6970218;28;20111;-80
2021/06/25 18:38:37;;;;;;;1.60;0.75;;;;;;;;;;6964554;28;20077;-82
2021/06/25 18:41:57;;;;;;;1.33;0.70;;;;;;;;;;6951371;28;20046;-81
2021/06/25 18:45:19;;;;;;;6.47;1.00;;;;;;;;;;6953487;28;20521;-81
2021/06/25 18:48:40;;;;;;;3.90;1.02;;;;;;;;;;6969944;28;20041;-80
2021/06/25 18:52:02;;;;;;;2.40;0.80;;;;;;;;;;6947981;28;20056;-80
2021/06/25 18:55:23;;;;;;;4.13;0.70;;;;;;;;;;6957494;28;20045;-80
2021/06/25 18:58:43;;;;;;;2.95;0.80;;;;;;;;;;6970844;28;20053;-80
2021/06/25 19:02:03;;;;;;;1.27;0.90;;;;;;;;;;6960952;28;20212;-80
2021/06/25 19:05:25;;;;;;;2.47;0.90;;;;;;;;;;6961702;28;20411;-80
2021/06/25 19:08:45;;;;;;;2.88;0.90;;;;;;;;;;6950704;28;20099;-80
2021/06/25 19:12:06;;;;;;;1.27;0.77;;;;;;;;;;6962432;28;20380;-80
2021/06/25 19:15:27;;;;;;;0.60;0.60;;;;;;;;;;6965148;28;20052;-80
2021/06/25 19:18:49;;;;;;;4.45;0.75;;;;;;;;;;6970367;28;20037;-81
2021/06/25 19:22:10;;;;;;;2.20;0.90;;;;;;;;;;6964204;28;20073;-81
2021/06/25 19:25:30;;;;;;;2.10;1.00;;;;;;;;;;6965694;28;20095;-81
2021/06/25 19:28:51;;;;;;;2.10;0.90;;;;;;;;;;6970666;28;20045;-77
2021/06/25 19:32:11;;;;;;;0.98;0.75;;;;;;;;;;6963579;28;20055;-77
2021/06/25 19:35:32;;;;;;;1.95;0.80;;;;;;;;;;6970264;28;20049;-77
2021/06/25 19:38:52;;;;;;;1.35;0.90;;;;;;;;;;6969462;28;20048;-77
2021/06/25 19:42:13;;;;;;;1.17;0.65;;;;;;;;;;6962359;28;20051;-77
2021/06/25 19:45:34;;;;;;;1.20;0.80;;;;;;;;;;6969225;28;20479;-77
2021/06/25 19:48:55;;;;;;;2.42;1.02;;;;;;;;;;6966637;28;20050;-77
2021/06/25 19:52:16;;;;;;;1.27;0.68;;;;;;;;;;6957169;28;20103;-77
2021/06/25 19:55:36;;;;;;;3.30;0.90;;;;;;;;;;6969652;28;20049;-77
2021/06/25 19:58:57;;;;;;;3.85;0.98;;;;;;;;;;6959693;28;20082;-77
2021/06/25 20:02:17;;;;;;;2.25;0.90;;;;;;;;;;6957015;28;20106;-77
2021/06/25 20:05:37;;;;;;;2.63;0.75;;;;;;;;;;6958943;28;20072;-77
2021/06/25 20:09:00;;;;;;;2.53;0.70;;;;;;;;;;6954880;28;20521;-77
2021/06/25 20:12:21;;;;;;;0.95;0.82;;;;;;;;;;6960008;28;20083;-77
2021/06/25 20:15:41;;;;;;;0.95;0.65;;;;;;;;;;6954073;28;20049;-77
2021/06/25 20:19:02;;;;;;;1.65;0.90;;;;;;;;;;6969611;28;20052;-77
2021/06/25 20:22:23;;;;;;;2.05;0.90;;;;;;;;;;6965425;28;20045;-77
2021/06/25 20:25:43;;;;;;;1.10;0.82;;;;;;;;;;6969117;28;20135;-77